Time;durP1;ratioP1;P1;durP2;ratioP2;P2;SDS_P1;SDS_P2;PMS_P1;PMS_P2;Temp;Humidity;BMP_temperature;BMP_pressure;BME280_temperature;BME280_humidity;BME280_pressure;Samples;Min_cycle;Max_cycle;Signal;HPM_P1;HPM_P2
2023/04/09 00:01:22;;;;;;;88.88;54.33;;;8.50;99.90;;;;;;5032460;28;20110;-86
2023/04/09 00:03:48;;;;;;;93.10;53.35;;;8.50;99.90;;;;;;5032204;28;20489;-86
2023/04/09 00:06:13;;;;;;;91.03;52.40;;;8.60;99.90;;;;;;5032267;28;20060;-86
2023/04/09 00:08:39;;;;;;;86.22;51.88;;;8.80;99.90;;;;;;5032693;28;20238;-86
2023/04/09 00:11:05;;;;;;;80.65;48.88;;;8.50;99.90;;;;;;5032472;28;20578;-87
2023/04/09 00:13:31;;;;;;;81.60;47.95;;;8.60;99.90;;;;;;5032062;28;20376;-86
2023/04/09 00:15:56;;;;;;;75.82;46.60;;;8.80;99.90;;;;;;5031522;28;20106;-86
2023/04/09 00:18:22;;;;;;;74.53;47.17;;;8.50;99.90;;;;;;5031737;28;20049;-86
2023/04/09 00:20:48;;;;;;;69.35;46.13;;;8.40;99.90;;;;;;5024577;28;20094;-85
2023/04/09 00:23:14;;;;;;;73.82;45.75;;;8.40;99.90;;;;;;5018844;28;20045;-85
2023/04/09 00:25:40;;;;;;;73.55;45.08;;;8.40;99.90;;;;;;5024405;28;20470;-85
2023/04/09 00:28:05;;;;;;;70.88;45.40;;;8.40;99.90;;;;;;5010254;28;20033;-86
2023/04/09 00:30:31;;;;;;;76.30;46.83;;;8.40;99.90;;;;;;5015275;28;20045;-86
2023/04/09 00:32:57;;;;;;;76.22;47.80;;;8.40;99.90;;;;;;5015924;28;20538;-85
2023/04/09 00:35:23;;;;;;;77.93;48.58;;;8.40;99.90;;;;;;5039718;28;20055;-85
2023/04/09 00:37:49;;;;;;;78.95;48.28;;;8.40;99.90;;;;;;5011953;28;20171;-85
2023/04/09 00:40:15;;;;;;;78.25;46.97;;;8.40;99.90;;;;;;5031767;28;20463;-86
2023/04/09 00:42:40;;;;;;;75.35;45.97;;;8.40;99.90;;;;;;5015180;28;20080;-85
2023/04/09 00:45:07;;;;;;;72.40;46.95;;;8.40;99.90;;;;;;5015008;28;20474;-85
2023/04/09 00:47:34;;;;;;;73.72;45.45;;;8.40;99.90;;;;;;5027959;28;20087;-85
2023/04/09 00:50:00;;;;;;;65.63;40.22;;;8.50;99.90;;;;;;5015685;28;20084;-86
2023/04/09 00:52:29;;;;;;;58.75;38.10;;;8.40;99.90;;;;;;5013227;28;20449;-87
2023/04/09 00:54:57;;;;;;;60.72;35.92;;;8.30;99.90;;;;;;5015471;28;20045;-86
2023/04/09 00:57:23;;;;;;;52.42;35.30;;;8.40;99.90;;;;;;5014238;28;20044;-86
2023/04/09 00:59:49;;;;;;;48.53;32.30;;;8.30;99.90;;;;;;5031239;28;20045;-85
2023/04/09 01:02:15;;;;;;;49.63;31.92;;;8.70;99.90;;;;;;5030648;28;20541;-85
2023/04/09 01:04:42;;;;;;;42.00;30.35;;;8.30;99.90;;;;;;5015155;28;20127;-85
2023/04/09 01:07:19;;;;;;;43.17;28.90;;;8.30;99.90;;;;;;5013791;28;20502;-86
2023/04/09 01:09:59;;;;;;;40.45;27.45;;;8.30;99.90;;;;;;5015533;28;20079;-86
2023/04/09 01:12:45;;;;;;;42.47;27.23;;;8.30;99.90;;;;;;5029758;28;20908;-85
2023/04/09 01:15:17;;;;;;;42.92;26.60;;;8.30;99.90;;;;;;5017994;28;20455;-85
2023/04/09 01:17:55;;;;;;;38.85;25.80;;;8.30;99.90;;;;;;5023466;28;20522;-85
2023/04/09 01:20:31;;;;;;;39.47;26.23;;;8.30;99.90;;;;;;5026167;28;20079;-85
2023/04/09 01:23:17;;;;;;;36.67;25.25;;;8.30;99.90;;;;;;5009088;28;20099;-86
2023/04/09 01:25:53;;;;;;;38.60;26.77;;;8.30;99.90;;;;;;5014166;28;20041;-85
2023/04/09 01:28:18;;;;;;;41.25;26.27;;;8.30;99.90;;;;;;5030458;28;20047;-87
2023/04/09 01:30:48;;;;;;;41.85;27.10;;;8.30;99.90;;;;;;5014016;28;20407;-86
2023/04/09 01:33:16;;;;;;;42.65;27.50;;;8.30;99.90;;;;;;5014273;28;20060;-86
2023/04/09 01:35:44;;;;;;;40.03;27.08;;;8.30;99.90;;;;;;5026832;28;20045;-86
2023/04/09 01:38:12;;;;;;;37.75;26.67;;;8.30;99.90;;;;;;5014231;28;20546;-86
2023/04/09 01:40:38;;;;;;;43.67;27.25;;;8.20;99.90;;;;;;5013613;28;20167;-84
2023/04/09 01:43:06;;;;;;;41.60;27.00;;;8.20;99.90;;;;;;5011549;28;20092;-84
2023/04/09 01:45:33;;;;;;;39.55;26.60;;;8.20;99.90;;;;;;5006872;28;20118;-84
2023/04/09 01:48:00;;;;;;;41.15;26.20;;;8.30;99.90;;;;;;5001893;28;20037;-84
2023/04/09 01:50:26;;;;;;;43.13;27.13;;;8.20;99.90;;;;;;5016117;28;20045;-83
2023/04/09 01:52:52;;;;;;;37.17;25.23;;;8.20;99.90;;;;;;5014546;28;20072;-83
2023/04/09 01:55:18;;;;;;;40.67;26.70;;;8.20;99.90;;;;;;5013732;28;20053;-84
2023/04/09 01:57:43;;;;;;;38.15;25.63;;;8.20;99.90;;;;;;5029423;28;20481;-84
2023/04/09 02:00:10;;;;;;;38.53;24.38;;;8.20;99.90;;;;;;5001083;28;20095;-83
2023/04/09 02:02:44;;;;;;;39.47;25.67;;;8.20;99.90;;;;;;5012830;28;20033;-84
2023/04/09 02:05:14;;;;;;;39.47;23.98;;;8.30;99.90;;;;;;5028157;28;20076;-84
2023/04/09 02:07:46;;;;;;;36.22;24.65;;;8.20;99.90;;;;;;5029460;28;20137;-85
2023/04/09 02:10:12;;;;;;;35.78;25.08;;;8.20;99.90;;;;;;5028257;28;20378;-84
2023/04/09 02:12:47;;;;;;;39.25;24.30;;;8.20;99.90;;;;;;5013398;28;20140;-84
2023/04/09 02:15:13;;;;;;;38.00;25.45;;;8.20;99.90;;;;;;5013640;28;20159;-83
2023/04/09 02:17:39;;;;;;;38.70;24.92;;;8.20;99.90;;;;;;5012914;28;20862;-83
2023/04/09 02:20:06;;;;;;;40.75;24.85;;;8.20;99.90;;;;;;5049366;28;20056;-84
2023/04/09 02:22:32;;;;;;;39.03;25.70;;;8.20;99.90;;;;;;5048275;28;20043;-84
2023/04/09 02:24:57;;;;;;;38.38;25.63;;;8.20;99.90;;;;;;5033686;28;20040;-84
2023/04/09 02:27:23;;;;;;;38.25;26.60;;;8.50;99.90;;;;;;5032349;28;20139;-83
2023/04/09 02:29:49;;;;;;;43.35;26.20;;;8.20;99.90;;;;;;5049468;28;20043;-84
2023/04/09 02:32:15;;;;;;;40.05;26.50;;;8.30;99.90;;;;;;5049151;28;20052;-83
2023/04/09 02:34:41;;;;;;;42.40;26.52;;;8.10;99.90;;;;;;5046219;28;20051;-83
2023/04/09 02:37:07;;;;;;;38.90;25.33;;;8.10;99.90;;;;;;5038882;28;20064;-84
2023/04/09 02:39:32;;;;;;;36.97;25.67;;;8.10;99.90;;;;;;5049334;28;20083;-85
2023/04/09 02:41:58;;;;;;;40.47;26.30;;;8.10;99.90;;;;;;5033163;28;20473;-84
2023/04/09 02:44:24;;;;;;;39.08;26.05;;;8.10;99.90;;;;;;5032475;28;20567;-83
2023/04/09 02:46:51;;;;;;;41.38;25.02;;;8.10;99.90;;;;;;5032947;28;20468;-84
2023/04/09 02:49:17;;;;;;;40.28;26.85;;;8.10;99.90;;;;;;5033257;28;20075;-84
2023/04/09 02:51:42;;;;;;;40.13;25.42;;;8.30;99.90;;;;;;5031669;28;20087;-84
2023/04/09 02:54:08;;;;;;;38.08;25.73;;;8.10;99.90;;;;;;5049781;28;20064;-84
2023/04/09 02:56:34;;;;;;;38.42;26.27;;;8.00;99.90;;;;;;5033155;28;20056;-84
2023/04/09 02:58:59;;;;;;;42.95;27.65;;;8.10;99.90;;;;;;5032918;28;20068;-84
2023/04/09 03:01:25;;;;;;;45.13;27.52;;;8.10;99.90;;;;;;5032664;28;20045;-84
2023/04/09 03:03:51;;;;;;;43.22;27.67;;;8.10;99.90;;;;;;5032899;28;20041;-84
2023/04/09 03:06:17;;;;;;;48.95;28.73;;;8.10;99.90;;;;;;5032107;28;20087;-84
2023/04/09 03:08:43;;;;;;;43.30;27.73;;;8.00;99.90;;;;;;5050270;28;20090;-84
2023/04/09 03:11:08;;;;;;;44.38;27.00;;;8.00;99.90;;;;;;5036733;28;20056;-84
2023/04/09 03:13:34;;;;;;;46.83;28.48;;;8.00;99.90;;;;;;5052893;28;20037;-84
2023/04/09 03:16:00;;;;;;;46.13;29.90;;;8.00;99.90;;;;;;5036720;28;20048;-84
2023/04/09 03:18:25;;;;;;;45.78;28.55;;;8.20;99.90;;;;;;5052585;28;20132;-84
2023/04/09 03:20:51;;;;;;;47.72;28.40;;;8.10;99.90;;;;;;5052066;28;20511;-84
2023/04/09 03:23:17;;;;;;;45.38;28.17;;;8.00;99.90;;;;;;5036317;28;20040;-84
2023/04/09 03:25:42;;;;;;;41.10;27.25;;;7.90;99.90;;;;;;5049539;28;20226;-84
2023/04/09 03:28:08;;;;;;;45.35;28.27;;;7.90;99.90;;;;;;5049383;28;20040;-84
2023/04/09 03:30:34;;;;;;;43.60;28.27;;;7.90;99.90;;;;;;5036228;28;20045;-84
2023/04/09 03:32:59;;;;;;;42.00;27.88;;;8.10;99.90;;;;;;5049100;28;20029;-84
2023/04/09 03:35:25;;;;;;;44.15;28.17;;;7.80;99.90;;;;;;5023646;28;20047;-83
2023/04/09 03:37:51;;;;;;;46.55;28.10;;;7.80;99.90;;;;;;5036154;28;20037;-84
2023/04/09 03:40:16;;;;;;;43.38;27.77;;;7.80;99.90;;;;;;5035305;28;20040;-83
2023/04/09 03:42:42;;;;;;;42.95;27.05;;;7.70;99.90;;;;;;5035943;28;20047;-83
2023/04/09 03:45:08;;;;;;;43.80;27.38;;;7.70;99.90;;;;;;5053278;28;20090;-85
2023/04/09 03:47:34;;;;;;;44.83;27.52;;;7.70;99.90;;;;;;5051613;28;20044;-85
2023/04/09 03:50:00;;;;;;;42.45;27.95;;;7.70;99.90;;;;;;5036869;28;20476;-85
2023/04/09 03:52:25;;;;;;;41.88;26.73;;;7.70;99.90;;;;;;5034635;28;20036;-84
2023/04/09 03:54:51;;;;;;;47.88;28.42;;;8.00;99.90;;;;;;5033274;28;20040;-84
2023/04/09 03:57:17;;;;;;;46.83;29.13;;;7.60;99.90;;;;;;5032611;28;20479;-84
2023/04/09 03:59:42;;;;;;;44.00;28.42;;;7.60;99.90;;;;;;5036055;28;20123;-84
2023/04/09 04:02:08;;;;;;;42.78;28.60;;;7.60;99.90;;;;;;5052183;28;20040;-84
2023/04/09 04:04:34;;;;;;;44.53;28.50;;;7.60;99.90;;;;;;5052438;28;20138;-84
2023/04/09 04:07:01;;;;;;;47.45;30.08;;;7.50;99.90;;;;;;5035340;28;20480;-84
2023/04/09 04:09:27;;;;;;;45.40;29.52;;;7.70;99.90;;;;;;5051785;28;20099;-84
2023/04/09 04:11:52;;;;;;;47.85;30.27;;;7.60;99.90;;;;;;5034594;28;20056;-84
2023/04/09 04:14:18;;;;;;;48.85;30.30;;;7.50;99.90;;;;;;5036119;28;20041;-83
2023/04/09 04:16:44;;;;;;;47.63;30.02;;;7.70;99.90;;;;;;5051020;28;20052;-84
2023/04/09 04:19:09;;;;;;;47.97;29.98;;;7.70;99.90;;;;;;5048850;28;20044;-85
2023/04/09 04:21:35;;;;;;;48.95;30.65;;;7.50;99.90;;;;;;5034774;28;20052;-84
2023/04/09 04:24:01;;;;;;;49.10;31.10;;;7.50;99.90;;;;;;5032061;28;20037;-84
2023/04/09 04:26:26;;;;;;;41.20;28.17;;;7.90;99.90;;;;;;5031698;28;20147;-84
2023/04/09 04:28:52;;;;;;;41.10;27.92;;;7.40;99.90;;;;;;5040648;28;20037;-85
2023/04/09 04:31:18;;;;;;;44.58;28.60;;;7.50;99.90;;;;;;5011061;28;20396;-83
2023/04/09 04:33:43;;;;;;;46.85;29.23;;;7.40;99.90;;;;;;5026908;28;20053;-84
2023/04/09 04:36:11;;;;;;;44.97;28.42;;;7.80;99.90;;;;;;5038973;28;20128;-84
2023/04/09 04:38:37;;;;;;;51.17;29.85;;;7.50;99.90;;;;;;5015774;28;20461;-84
2023/04/09 04:41:04;;;;;;;42.83;29.55;;;7.50;99.90;;;;;;5027575;28;20140;-85
2023/04/09 04:43:30;;;;;;;42.72;28.83;;;7.50;99.90;;;;;;5053567;28;20048;-84
2023/04/09 04:45:55;;;;;;;45.90;29.63;;;7.50;99.90;;;;;;5023115;28;20045;-84
2023/04/09 04:48:21;;;;;;;46.05;28.20;;;7.50;99.90;;;;;;5031594;28;20045;-85
2023/04/09 04:50:54;;;;;;;44.28;28.95;;;7.50;99.90;;;;;;5030771;28;20519;-84
2023/04/09 04:53:20;;;;;;;42.83;29.25;;;7.60;99.90;;;;;;5021763;28;20033;-84
2023/04/09 04:55:46;;;;;;;46.30;29.00;;;7.60;99.90;;;;;;5019010;28;20753;-84
2023/04/09 04:58:11;;;;;;;51.60;29.35;;;7.60;99.90;;;;;;5030842;28;20107;-84
2023/04/09 05:00:37;;;;;;;53.88;30.45;;;7.60;99.90;;;;;;5044180;28;20140;-84
2023/04/09 05:03:03;;;;;;;49.95;29.08;;;8.00;99.90;;;;;;5013391;28;20037;-84
2023/04/09 05:05:28;;;;;;;47.70;30.52;;;7.60;99.90;;;;;;5016903;28;20053;-85
2023/04/09 05:07:54;;;;;;;42.85;29.58;;;7.60;99.90;;;;;;5031518;28;20146;-85
2023/04/09 05:10:20;;;;;;;45.83;29.60;;;7.80;99.90;;;;;;5017522;28;20144;-85
2023/04/09 05:12:45;;;;;;;53.50;29.88;;;7.70;99.90;;;;;;5024827;28;20037;-84
2023/04/09 05:15:11;;;;;;;55.08;32.58;;;7.70;99.90;;;;;;5014967;28;20124;-83
2023/04/09 05:17:37;;;;;;;53.15;30.98;;;7.70;99.90;;;;;;5037444;28;20046;-84
2023/04/09 05:20:03;;;;;;;51.38;33.28;;;7.90;99.90;;;;;;5030673;28;20380;-84
2023/04/09 05:22:29;;;;;;;53.78;33.75;;;7.70;99.90;;;;;;5033231;28;20098;-84
2023/04/09 05:24:55;;;;;;;53.30;33.55;;;7.80;99.90;;;;;;5051341;28;20045;-85
2023/04/09 05:27:23;;;;;;;53.70;32.70;;;7.80;99.90;;;;;;5033503;28;20071;-84
2023/04/09 05:29:48;;;;;;;54.42;33.17;;;7.80;99.90;;;;;;5034764;28;20048;-85
2023/04/09 05:32:14;;;;;;;54.58;33.13;;;7.80;99.90;;;;;;5033969;28;20052;-84
2023/04/09 05:34:40;;;;;;;62.78;36.75;;;7.80;99.90;;;;;;5033414;28;20099;-85
2023/04/09 05:37:06;;;;;;;54.55;35.20;;;7.80;99.90;;;;;;5046192;28;20071;-84
2023/04/09 05:39:32;;;;;;;60.20;36.47;;;7.90;99.90;;;;;;5050158;28;20049;-85
2023/04/09 05:41:57;;;;;;;62.85;37.58;;;7.90;99.90;;;;;;5033798;28;20136;-84
2023/04/09 05:44:23;;;;;;;62.95;36.92;;;7.90;99.90;;;;;;5050185;28;20049;-84
2023/04/09 05:46:49;;;;;;;58.38;36.30;;;7.90;99.90;;;;;;5029590;28;20049;-84
2023/04/09 05:49:15;;;;;;;60.55;38.78;;;7.90;99.90;;;;;;5031016;28;20151;-84
2023/04/09 05:51:42;;;;;;;60.92;36.97;;;8.00;99.90;;;;;;5024377;28;20080;-84
2023/04/09 05:54:08;;;;;;;58.38;37.90;;;8.00;99.90;;;;;;5034096;28;20489;-84
2023/04/09 05:56:34;;;;;;;57.83;37.58;;;8.00;99.90;;;;;;5034045;28;20207;-84
2023/04/09 05:59:00;;;;;;;64.80;38.45;;;8.00;99.90;;;;;;5031924;28;20381;-85
2023/04/09 06:01:26;;;;;;;59.72;36.53;;;8.00;99.90;;;;;;5037488;28;20045;-84
2023/04/09 06:03:52;;;;;;;53.58;34.17;;;8.00;99.90;;;;;;5044943;28;20059;-85
2023/04/09 06:06:17;;;;;;;56.83;34.47;;;8.40;99.90;;;;;;5025957;28;20049;-84
2023/04/09 06:08:43;;;;;;;48.60;32.45;;;8.00;99.90;;;;;;5030967;28;20041;-84
2023/04/09 06:11:10;;;;;;;49.15;32.13;;;8.10;99.90;;;;;;5030772;28;20050;-84
2023/04/09 06:13:36;;;;;;;48.95;31.05;;;8.10;99.90;;;;;;5025512;28;20051;-84
2023/04/09 06:16:05;;;;;;;54.35;32.45;;;8.10;99.90;;;;;;5032364;28;20488;-84
2023/04/09 06:18:31;;;;;;;46.75;31.27;;;8.10;99.90;;;;;;5027244;28;20121;-84
2023/04/09 06:21:02;;;;;;;44.25;29.23;;;8.10;99.90;;;;;;5045902;28;20076;-85
2023/04/09 06:23:28;;;;;;;45.90;30.45;;;8.10;99.90;;;;;;5031283;28;20036;-84
2023/04/09 06:25:54;;;;;;;54.00;30.75;;;8.10;99.90;;;;;;5033138;28;20557;-84
2023/04/09 06:28:20;;;;;;;47.25;29.90;;;8.10;99.90;;;;;;5047722;28;20489;-84
2023/04/09 06:30:46;;;;;;;45.60;30.02;;;8.10;99.90;;;;;;5050101;28;20047;-84
2023/04/09 06:33:12;;;;;;;50.50;30.13;;;8.10;99.90;;;;;;5032504;28;20374;-84
2023/04/09 06:35:37;;;;;;;49.05;29.38;;;8.10;99.90;;;;;;5032304;28;20052;-84
2023/04/09 06:38:03;;;;;;;46.78;29.13;;;7.80;99.90;;;;;;5046241;28;20473;-83
2023/04/09 06:40:29;;;;;;;43.95;30.27;;;8.10;99.90;;;;;;5023021;28;20381;-84
2023/04/09 06:42:55;;;;;;;49.00;29.48;;;8.10;99.90;;;;;;5020526;28;20464;-84
2023/04/09 06:45:21;;;;;;;42.55;28.83;;;8.20;99.90;;;;;;5031502;28;20551;-84
2023/04/09 06:47:47;;;;;;;42.17;28.92;;;8.20;99.90;;;;;;5045213;28;20049;-83
2023/04/09 06:50:12;;;;;;;42.28;29.08;;;8.20;99.90;;;;;;5045728;28;20068;-83
2023/04/09 06:52:38;;;;;;;43.45;29.02;;;8.30;99.90;;;;;;5063485;28;20083;-83
2023/04/09 06:55:04;;;;;;;45.72;29.23;;;8.30;99.90;;;;;;5024998;28;20065;-84
2023/04/09 06:57:30;;;;;;;44.42;30.50;;;8.30;99.90;;;;;;5022058;28;20041;-84
2023/04/09 06:59:56;;;;;;;48.05;31.73;;;8.30;99.90;;;;;;5044283;28;20053;-84
2023/04/09 07:02:22;;;;;;;50.97;31.52;;;8.40;99.90;;;;;;5030752;28;20138;-83
2023/04/09 07:04:47;;;;;;;53.67;33.80;;;8.30;99.90;;;;;;5048535;28;20041;-87
2023/04/09 07:07:13;;;;;;;53.15;34.90;;;8.40;99.90;;;;;;5047618;28;20052;-86
2023/04/09 07:09:39;;;;;;;48.03;32.13;;;8.40;99.90;;;;;;5033375;28;20902;-87
2023/04/09 07:12:05;;;;;;;47.97;32.78;;;8.50;99.90;;;;;;5048686;28;20048;-86
2023/04/09 07:14:31;;;;;;;47.22;31.38;;;8.50;99.90;;;;;;5032771;28;20049;-88
2023/04/09 07:16:57;;;;;;;48.47;32.95;;;8.50;99.90;;;;;;5033721;28;20068;-89
2023/04/09 07:19:22;;;;;;;47.30;32.67;;;8.50;99.90;;;;;;5031145;28;20052;-91
2023/04/09 07:21:48;;;;;;;55.50;33.22;;;8.60;99.90;;;;;;5030629;28;20040;-89
2023/04/09 07:24:14;;;;;;;48.78;32.03;;;8.60;99.90;;;;;;5031560;28;20071;-87
2023/04/09 07:26:40;;;;;;;48.50;32.13;;;8.60;99.90;;;;;;5033678;28;20200;-95
2023/04/09 07:29:06;;;;;;;42.50;28.67;;;8.60;99.90;;;;;;5037657;28;20472;-93
2023/04/09 07:31:53;;;;;;;42.95;30.38;;;8.60;99.90;;;;;;5035260;28;20085;-95
2023/04/09 07:34:28;;;;;;;43.30;29.52;;;8.90;99.90;;;;;;5040979;28;20081;-96
2023/04/09 07:37:26;;;;;;;42.15;29.10;;;8.70;99.90;;;;;;5041058;28;20569;-96
2023/04/09 07:40:04;;;;;;;;;;;;;;;;;;;;;
2023/04/09 07:42:42;;;;;;;43.85;28.85;;;9.00;99.90;;;;;;5047895;28;20049;-96
2023/04/09 07:45:21;;;;;;;;;;;;;;;;;;;;;
2023/04/09 07:47:59;;;;;;;;;;;;;;;;;;;;;
2023/04/09 07:50:55;;;;;;;38.88;27.40;;;9.20;99.90;;;;;;5047379;28;20059;-96
2023/04/09 07:53:33;;;;;;;45.28;29.15;;;9.30;99.90;;;;;;5051670;28;20081;-96
2023/04/09 07:56:01;;;;;;;44.80;29.30;;;9.40;99.90;;;;;;5024625;28;20033;-96
2023/04/09 07:58:37;;;;;;;44.30;28.40;;;9.40;99.90;;;;;;5019766;22;20051;-96
2023/04/09 08:05:06;;;;;;;;;;;;;;;;;;;;;
2023/04/09 08:11:27;;;;;;;;;;;;;;;;;;;;;
2023/04/09 08:21:24;;;;;;;39.03;24.05;;;9.90;99.90;;;;;;5009027;28;20098;-96
2023/04/09 08:27:57;;;;;;;40.97;26.85;;;9.90;99.90;;;;;;4965342;28;20194;-96
2023/04/09 08:31:05;;;;;;;38.88;25.95;;;10.00;99.90;;;;;;4961735;28;20062;-96
2023/04/09 08:33:43;;;;;;;38.70;26.10;;;10.10;99.90;;;;;;4936852;28;20090;-96
2023/04/09 08:36:53;;;;;;;43.45;27.15;;;10.10;99.90;;;;;;4956318;28;20087;-96
2023/04/09 08:39:45;;;;;;;36.22;25.33;;;10.20;99.90;;;;;;4912915;28;20055;-96
2023/04/09 08:43:07;;;;;;;37.58;24.42;;;10.20;99.90;;;;;;4925505;28;20061;-96
2023/04/09 08:46:16;;;;;;;36.42;25.50;;;10.00;99.90;;;;;;4960620;28;20051;-96
2023/04/09 08:49:55;;;;;;;39.38;26.30;;;10.40;99.90;;;;;;4927774;29;20073;-96
2023/04/09 08:53:18;;;;;;;39.95;24.38;;;10.80;99.90;;;;;;4905099;28;20054;-96
2023/04/09 09:03:52;;;;;;;33.55;24.17;;;10.80;99.90;;;;;;4944002;28;20503;-96
2023/04/09 09:06:43;;;;;;;34.47;23.58;;;10.90;99.90;;;;;;4991885;28;20060;-96
2023/04/09 09:13:38;;;;;;;37.33;24.15;;;11.10;99.90;;;;;;4999489;22;20532;-90
2023/04/09 09:16:13;;;;;;;36.03;23.27;;;11.20;99.90;;;;;;4978857;28;20057;-90
2023/04/09 09:18:43;;;;;;;34.22;22.95;;;11.30;99.90;;;;;;4978971;28;20042;-90
2023/04/09 09:21:16;;;;;;;34.53;23.05;;;11.40;99.90;;;;;;4966023;28;20042;-91
2023/04/09 09:23:43;;;;;;;33.22;21.70;;;11.50;99.90;;;;;;4979590;28;20038;-91
2023/04/09 09:26:15;;;;;;;30.15;21.70;;;11.60;99.90;;;;;;4978864;28;20099;-91
2023/04/09 09:28:45;;;;;;;31.95;22.13;;;11.70;99.90;;;;;;4982541;28;20485;-91
2023/04/09 09:31:15;;;;;;;34.15;22.65;;;11.80;99.90;;;;;;4972104;28;20537;-93
2023/04/09 09:33:41;;;;;;;32.47;22.65;;;11.80;99.90;;;;;;4985078;28;20840;-87
2023/04/09 09:36:10;;;;;;;31.65;22.02;;;11.90;99.90;;;;;;4977710;28;20104;-89
2023/04/09 09:38:58;;;;;;;31.20;22.13;;;12.10;99.90;;;;;;4993340;28;20041;-90
2023/04/09 09:41:24;;;;;;;32.08;22.45;;;12.00;99.90;;;;;;4977188;28;20052;-89
2023/04/09 09:43:50;;;;;;;32.60;23.38;;;12.00;99.90;;;;;;4978372;28;20751;-89
2023/04/09 09:46:16;;;;;;;35.60;23.20;;;12.10;99.90;;;;;;4977081;28;20042;-88
2023/04/09 09:48:45;;;;;;;33.60;22.80;;;12.10;99.90;;;;;;4993320;28;20460;-88
2023/04/09 09:51:12;;;;;;;34.95;23.95;;;12.10;99.90;;;;;;4976341;28;20084;-88
2023/04/09 09:53:42;;;;;;;33.80;23.45;;;12.10;99.90;;;;;;4993657;28;20076;-87
2023/04/09 09:56:15;;;;;;;33.40;24.00;;;12.20;99.90;;;;;;4992823;28;20417;-87
2023/04/09 09:59:03;;;;;;;30.90;22.20;;;12.20;99.90;;;;;;4976270;28;20046;-86
2023/04/09 10:01:29;;;;;;;33.97;24.85;;;12.30;99.90;;;;;;4976235;28;20497;-88
2023/04/09 10:03:58;;;;;;;35.97;25.27;;;12.40;99.90;;;;;;4976916;28;20053;-86
2023/04/09 10:06:26;;;;;;;31.02;23.38;;;12.40;99.90;;;;;;4976185;28;20393;-87
2023/04/09 10:08:55;;;;;;;32.30;23.55;;;12.50;99.90;;;;;;4977020;28;20038;-91
2023/04/09 10:11:22;;;;;;;32.42;23.63;;;12.60;99.90;;;;;;4977674;28;20049;-90
2023/04/09 10:13:57;;;;;;;39.05;23.67;;;12.70;99.90;;;;;;4993391;28;20068;-90
2023/04/09 10:16:25;;;;;;;33.70;24.10;;;12.70;99.90;;;;;;4993721;28;20065;-90
2023/04/09 10:18:52;;;;;;;32.22;23.45;;;12.80;99.90;;;;;;4977359;28;20034;-91
2023/04/09 10:21:35;;;;;;;37.25;23.58;;;12.90;99.90;;;;;;4977201;28;20077;-90
2023/04/09 10:24:04;;;;;;;;;;;13.10;99.90;;;;;;4978766;28;20050;-89
2023/04/09 10:26:40;;;;;;;33.08;23.33;;;13.50;99.90;;;;;;4976695;28;19944;-88
2023/04/09 10:29:08;;;;;;;33.28;23.40;;;13.70;99.90;;;;;;4976415;28;20049;-89
2023/04/09 10:32:02;;;;;;;32.85;24.25;;;13.70;99.90;;;;;;4974948;28;20069;-89
2023/04/09 10:34:28;;;;;;;34.95;24.38;;;13.60;99.90;;;;;;4974416;28;20046;-89
2023/04/09 10:36:57;;;;;;;34.47;25.35;;;13.60;99.90;;;;;;4976046;28;20120;-91
2023/04/09 10:39:28;;;;;;;33.40;24.25;;;13.60;99.90;;;;;;4977803;28;20052;-89
2023/04/09 10:41:56;;;;;;;34.38;25.33;;;13.70;99.90;;;;;;4977362;28;20045;-89
2023/04/09 10:44:22;;;;;;;33.22;24.02;;;13.70;99.90;;;;;;4977513;28;20136;-91
2023/04/09 10:46:49;;;;;;;33.90;24.33;;;13.80;99.90;;;;;;4978069;28;20111;-88
2023/04/09 10:49:21;;;;;;;31.70;23.75;;;14.00;99.90;;;;;;4977288;28;20142;-89
2023/04/09 10:52:09;;;;;;;31.60;23.55;;;14.20;99.90;;;;;;4977592;28;20034;-91
2023/04/09 10:54:44;;;;;;;34.40;23.75;;;14.40;99.90;;;;;;4980789;28;20049;-88
2023/04/09 10:57:17;;;;;;;28.98;22.65;;;14.60;99.90;;;;;;4977030;28;20073;-89
2023/04/09 10:59:49;;;;;;;33.55;23.77;;;14.60;99.90;;;;;;4977607;28;20052;-91
2023/04/09 11:02:20;;;;;;;32.03;23.35;;;14.70;99.90;;;;;;4976306;28;20042;-87
2023/04/09 11:04:52;;;;;;;32.45;23.75;;;14.70;99.90;;;;;;4982088;28;20145;-86
2023/04/09 11:07:21;;;;;;;30.02;23.70;;;14.60;99.90;;;;;;4986309;28;20058;-88
2023/04/09 11:09:47;;;;;;;30.98;23.00;;;14.40;99.90;;;;;;4975968;28;20398;-87
2023/04/09 11:12:12;;;;;;;32.08;22.77;;;14.50;99.90;;;;;;4988625;28;20482;-86
2023/04/09 11:14:38;;;;;;;32.78;23.45;;;14.50;99.90;;;;;;4984652;28;20486;-85
2023/04/09 11:17:04;;;;;;;30.27;22.92;;;14.60;99.90;;;;;;4985011;28;20106;-86
2023/04/09 11:19:33;;;;;;;30.30;23.25;;;14.80;99.90;;;;;;4982603;28;20101;-85
2023/04/09 11:21:59;;;;;;;33.97;23.33;;;15.10;99.90;;;;;;4968819;28;20043;-88
2023/04/09 11:24:24;;;;;;;31.75;22.10;;;15.20;99.90;;;;;;4984976;28;20053;-86
2023/04/09 11:26:50;;;;;;;30.15;22.45;;;15.30;99.90;;;;;;4982033;28;20065;-87
2023/04/09 11:29:16;;;;;;;29.58;22.40;;;15.30;99.90;;;;;;4961977;28;20050;-88
2023/04/09 11:31:43;;;;;;;34.53;23.88;;;15.30;99.90;;;;;;4984669;28;20050;-86
2023/04/09 11:34:11;;;;;;;27.63;21.25;;;15.30;99.90;;;;;;4974738;28;20852;-86
2023/04/09 11:36:37;;;;;;;29.45;20.90;;;15.30;99.90;;;;;;4985777;28;20458;-86
2023/04/09 11:39:04;;;;;;;27.77;20.65;;;15.20;99.90;;;;;;4972088;28;20545;-86
2023/04/09 11:41:36;;;;;;;29.02;20.30;;;15.10;99.90;;;;;;4987413;28;20046;-86
2023/04/09 11:44:04;;;;;;;26.83;21.15;;;14.90;99.90;;;;;;4963674;28;20037;-86
2023/04/09 11:46:34;;;;;;;27.77;22.10;;;14.70;99.90;;;;;;4992693;28;20053;-87
2023/04/09 11:49:00;;;;;;;30.42;21.23;;;14.70;99.90;;;;;;4977907;28;20101;-87
2023/04/09 11:51:27;;;;;;;29.95;21.15;;;14.70;99.90;;;;;;4976381;28;20411;-86
2023/04/09 11:54:03;;;;;;;26.88;20.58;;;14.70;99.90;;;;;;4976415;28;20064;-87
2023/04/09 11:56:30;;;;;;;27.83;20.50;;;15.00;99.90;;;;;;4976313;28;20109;-86
2023/04/09 11:58:55;;;;;;;27.13;19.92;;;15.10;99.90;;;;;;4977802;28;20488;-86
2023/04/09 12:01:21;;;;;;;27.02;19.50;;;15.20;99.90;;;;;;4976024;28;20800;-87
2023/04/09 12:03:54;;;;;;;26.25;19.38;;;15.30;99.90;;;;;;4977400;28;20050;-86
2023/04/09 12:06:23;;;;;;;27.83;20.08;;;15.40;99.90;;;;;;4975712;28;20046;-86
2023/04/09 12:08:55;;;;;;;26.52;19.70;;;15.50;99.90;;;;;;4984108;28;20070;-86
2023/04/09 12:11:27;;;;;;;27.27;19.45;;;15.50;99.90;;;;;;4976215;28;20100;-86
2023/04/09 12:14:01;;;;;;;25.73;19.02;;;15.40;99.90;;;;;;4976400;28;20482;-86
2023/04/09 12:16:31;;;;;;;28.92;19.88;;;15.20;99.90;;;;;;4992953;28;20054;-86
2023/04/09 12:19:02;;;;;;;28.92;19.75;;;15.20;99.90;;;;;;4977099;28;20064;-86
2023/04/09 12:21:48;;;;;;;25.35;18.73;;;15.20;99.90;;;;;;4974025;28;20061;-86
2023/04/09 12:24:14;;;;;;;26.63;19.50;;;15.10;99.90;;;;;;4967568;28;20042;-86
2023/04/09 12:26:40;;;;;;;24.98;18.77;;;15.10;99.90;;;;;;4992627;28;20156;-86
2023/04/09 12:29:06;;;;;;;23.02;17.52;;;15.10;99.90;;;;;;4992477;28;20893;-85
2023/04/09 12:31:32;;;;;;;24.52;18.65;;;15.20;99.90;;;;;;4991799;28;20045;-86
2023/04/09 12:33:57;;;;;;;25.70;18.17;;;15.40;99.90;;;;;;4977576;28;20045;-84
2023/04/09 12:36:23;;;;;;;22.40;16.58;;;15.40;99.90;;;;;;4991500;28;20493;-85
2023/04/09 12:38:49;;;;;;;23.05;17.25;;;15.40;99.90;;;;;;4992596;28;20042;-86
2023/04/09 12:41:15;;;;;;;23.33;17.33;;;15.40;99.90;;;;;;4975170;28;20044;-85
2023/04/09 12:43:42;;;;;;;27.20;18.30;;;15.50;99.90;;;;;;4975340;28;20042;-85
2023/04/09 12:46:08;;;;;;;22.38;16.17;;;15.50;99.90;;;;;;4976661;28;20508;-86
2023/04/09 12:48:35;;;;;;;20.73;15.13;;;15.60;99.90;;;;;;4976118;28;20481;-85
2023/04/09 12:51:01;;;;;;;19.17;14.13;;;15.60;99.90;;;;;;4975655;28;20049;-84
2023/04/09 12:53:27;;;;;;;23.30;14.93;;;15.50;99.90;;;;;;4992485;28;20797;-85
2023/04/09 12:55:53;;;;;;;23.08;16.15;;;15.50;99.90;;;;;;4991369;28;20520;-85
2023/04/09 12:58:19;;;;;;;21.85;15.57;;;15.60;99.90;;;;;;4976376;28;20046;-85
2023/04/09 13:00:45;;;;;;;20.50;14.35;;;15.70;99.90;;;;;;4992250;28;20121;-85
2023/04/09 13:03:11;;;;;;;20.45;14.68;;;15.70;99.90;;;;;;4975361;28;20145;-85
2023/04/09 13:05:37;;;;;;;20.98;15.18;;;15.70;99.90;;;;;;4991048;28;20497;-84
2023/04/09 13:08:02;;;;;;;19.23;14.60;;;15.70;99.90;;;;;;4991877;28;20088;-85
2023/04/09 13:10:30;;;;;;;22.45;15.07;;;15.70;99.90;;;;;;4974820;28;20045;-84
2023/04/09 13:12:56;;;;;;;22.05;15.75;;;15.70;99.90;;;;;;4972187;28;20509;-84
2023/04/09 13:15:22;;;;;;;18.00;12.70;;;15.80;99.90;;;;;;4959276;28;20100;-85
2023/04/09 13:17:47;;;;;;;16.95;12.90;;;15.90;99.90;;;;;;4977396;28;20043;-85
2023/04/09 13:20:13;;;;;;;16.10;11.18;;;16.00;99.90;;;;;;4965084;28;20185;-85